createdAt,value
2018-02-14T00:00:40.699Z,-3.90
2018-02-14T00:03:07.238Z,-4.00
2018-02-14T00:05:33.454Z,-4.00
2018-02-14T00:07:59.680Z,-4.10
2018-02-14T00:10:25.902Z,-4.10
2018-02-14T00:12:52.130Z,-4.10
2018-02-14T00:15:18.364Z,-4.10
2018-02-14T00:17:45.325Z,-4.20
2018-02-14T00:20:12.284Z,-4.20
2018-02-14T00:22:39.266Z,-4.20
2018-02-14T00:25:05.512Z,-4.20
2018-02-14T00:27:31.740Z,-4.20
2018-02-14T00:29:57.952Z,-4.20
2018-02-14T00:32:24.918Z,-4.30
2018-02-14T00:34:51.871Z,-4.30
2018-02-14T00:37:18.824Z,-4.30
2018-02-14T00:39:45.055Z,-4.30
2018-02-14T00:42:12.009Z,-4.30
2018-02-14T00:44:38.988Z,-4.30
2018-02-14T00:47:05.944Z,-4.30
2018-02-14T00:49:32.910Z,-4.40
2018-02-14T00:51:59.163Z,-4.40
2018-02-14T00:54:25.374Z,-4.40
2018-02-14T00:56:52.344Z,-4.50
2018-02-14T00:59:19.311Z,-4.50
2018-02-14T01:01:45.518Z,-4.50
2018-02-14T01:04:11.765Z,-4.50
2018-02-14T01:06:38.739Z,-4.50
2018-02-14T01:09:04.941Z,-4.50
2018-02-14T01:11:31.157Z,-4.50
2018-02-14T01:13:57.375Z,-4.50
2018-02-14T01:16:23.587Z,-4.40
2018-02-14T01:18:50.530Z,-4.40
2018-02-14T01:21:16.745Z,-4.40
2018-02-14T01:23:42.989Z,-4.40
2018-02-14T01:26:09.203Z,-4.40
2018-02-14T01:28:35.480Z,-4.50
2018-02-14T01:31:01.683Z,-4.50
2018-02-14T01:33:27.903Z,-4.50
2018-02-14T01:35:54.139Z,-4.50
2018-02-14T01:38:21.112Z,-4.60
2018-02-14T01:40:47.335Z,-4.70
2018-02-14T01:43:14.285Z,-4.70
2018-02-14T01:45:40.503Z,-4.70
2018-02-14T01:48:06.735Z,-4.70
2018-02-14T01:50:37.783Z,-4.70
2018-02-14T01:53:04.019Z,-4.70
2018-02-14T01:55:30.983Z,-4.70
2018-02-14T01:57:57.216Z,-4.80
2018-02-14T02:00:23.453Z,-4.80
2018-02-14T02:02:49.666Z,-4.80
2018-02-14T02:05:15.918Z,-4.80
2018-02-14T02:07:42.146Z,-4.80
2018-02-14T02:10:08.367Z,-4.90
2018-02-14T02:12:35.366Z,-5.00
2018-02-14T02:15:01.590Z,-5.00
2018-02-14T02:17:27.828Z,-5.00
2018-02-14T02:19:54.066Z,-5.00
2018-02-14T02:22:21.044Z,-5.10
2018-02-14T02:24:47.272Z,-5.10
2018-02-14T02:27:13.506Z,-5.10
2018-02-14T02:29:39.740Z,-5.10
2018-02-14T02:32:05.959Z,-5.10
2018-02-14T02:34:32.932Z,-5.10
2018-02-14T02:36:59.168Z,-5.20
2018-02-14T02:39:37.701Z,-5.10
2018-02-14T02:42:03.930Z,-5.20
2018-02-14T02:44:30.893Z,-5.10
2018-02-14T02:46:57.144Z,-5.10
2018-02-14T02:49:23.366Z,-5.10
2018-02-14T02:51:50.330Z,-5.10
2018-02-14T02:54:16.552Z,-5.10
2018-02-14T02:56:43.800Z,-5.10
2018-02-14T02:59:10.037Z,-5.20
2018-02-14T03:01:36.245Z,-5.10
2018-02-14T03:04:02.483Z,-5.10
2018-02-14T03:06:28.720Z,-5.20
2018-02-14T03:08:55.208Z,-5.20
2018-02-14T03:11:21.426Z,-5.20
2018-02-14T03:13:47.650Z,-5.20
2018-02-14T03:16:13.862Z,-5.20
2018-02-14T03:18:40.062Z,-5.20
2018-02-14T03:21:06.304Z,-5.20
2018-02-14T03:23:32.514Z,-5.20
2018-02-14T03:25:58.748Z,-5.30
2018-02-14T03:28:25.001Z,-5.30
2018-02-14T03:30:51.202Z,-5.30
2018-02-14T03:33:17.459Z,-5.30
2018-02-14T03:35:43.687Z,-5.40
2018-02-14T03:38:09.909Z,-5.50
2018-02-14T03:40:36.879Z,-5.60
2018-02-14T03:43:03.851Z,-5.60
2018-02-14T03:45:30.116Z,-5.60
2018-02-14T03:47:56.316Z,-5.60
2018-02-14T03:50:22.527Z,-5.50
2018-02-14T03:52:48.752Z,-5.60
2018-02-14T03:55:14.974Z,-5.60
2018-02-14T03:57:41.251Z,-5.50
2018-02-14T04:00:07.512Z,-5.50
2018-02-14T04:02:34.463Z,-5.50
2018-02-14T04:05:01.459Z,-5.60
2018-02-14T04:07:27.659Z,-5.60
2018-02-14T04:09:54.891Z,-5.60
2018-02-14T04:12:21.110Z,-5.60
2018-02-14T04:14:47.340Z,-5.60
2018-02-14T04:17:13.577Z,-5.70
2018-02-14T04:19:39.796Z,-5.70
2018-02-14T04:22:06.761Z,-5.70
2018-02-14T04:24:33.007Z,-5.60
2018-02-14T04:26:59.255Z,-5.70
2018-02-14T04:29:25.480Z,-5.70
2018-02-14T04:31:52.448Z,-5.70
2018-02-14T04:34:18.658Z,-5.70
2018-02-14T04:36:45.602Z,-5.70
2018-02-14T04:39:11.832Z,-5.70
2018-02-14T04:41:38.051Z,-5.70
2018-02-14T04:44:04.280Z,-5.70
2018-02-14T04:46:30.517Z,-5.70
2018-02-14T04:48:56.724Z,-5.70
2018-02-14T04:51:23.716Z,-5.70
2018-02-14T04:53:49.930Z,-5.70
2018-02-14T04:56:16.887Z,-5.60
2018-02-14T04:58:43.129Z,-5.70
2018-02-14T05:01:09.406Z,-5.70
2018-02-14T05:03:35.633Z,-5.70
2018-02-14T05:06:01.854Z,-5.70
2018-02-14T05:08:28.080Z,-5.70
2018-02-14T05:10:55.038Z,-5.70
2018-02-14T05:13:21.990Z,-5.70
2018-02-14T05:15:48.971Z,-5.80
2018-02-14T05:18:15.176Z,-5.80
2018-02-14T05:20:42.122Z,-5.80
2018-02-14T05:23:08.416Z,-5.80
2018-02-14T05:25:34.629Z,-5.80
2018-02-14T05:28:01.650Z,-5.80
2018-02-14T05:30:27.860Z,-5.80
2018-02-14T05:32:54.109Z,-5.80
2018-02-14T05:35:20.322Z,-5.80
2018-02-14T05:37:46.522Z,-5.80
2018-02-14T05:40:12.744Z,-5.80
2018-02-14T05:42:38.950Z,-5.80
2018-02-14T05:45:05.201Z,-5.80
2018-02-14T05:47:31.418Z,-5.80
2018-02-14T05:49:57.642Z,-5.80
2018-02-14T05:52:24.593Z,-5.90
2018-02-14T05:54:51.550Z,-5.20
2018-02-14T05:57:18.502Z,-3.80
2018-02-14T05:59:44.711Z,-3.80
2018-02-14T06:02:10.960Z,-2.70
2018-02-14T06:04:37.170Z,-1.80
2018-02-14T06:07:03.391Z,-1.20
2018-02-14T06:09:29.621Z,-0.80
2018-02-14T06:11:56.570Z,0.20
2018-02-14T06:14:23.542Z,0.40
2018-02-14T06:16:49.744Z,0.30
2018-02-14T06:19:15.965Z,0.60
2018-02-14T06:21:42.207Z,0.50
2018-02-14T06:24:08.411Z,-0.10
2018-02-14T06:26:35.400Z,-1.50
2018-02-14T06:29:01.615Z,-1.50
2018-02-14T06:31:27.831Z,-2.10
2018-02-14T06:33:54.793Z,-3.00
2018-02-14T06:36:21.752Z,-3.30
2018-02-14T06:38:47.979Z,-3.30
2018-02-14T06:41:14.241Z,-3.50
2018-02-14T06:43:40.453Z,-3.60
2018-02-14T06:46:06.685Z,-3.70
2018-02-14T06:48:32.905Z,-3.70
2018-02-14T06:50:59.143Z,-3.80
2018-02-14T06:53:25.343Z,-3.90
2018-02-14T06:55:51.576Z,-4.00
2018-02-14T06:58:17.812Z,-3.90
2018-02-14T07:00:44.790Z,-3.90
2018-02-14T07:03:11.021Z,-4.00
2018-02-14T07:05:37.234Z,-4.00
2018-02-14T07:08:04.206Z,-4.10
2018-02-14T07:10:30.454Z,-4.10
2018-02-14T07:12:57.402Z,-4.00
2018-02-14T07:15:24.390Z,-3.90
2018-02-14T07:17:50.622Z,-3.90
2018-02-14T07:20:16.830Z,-3.80
2018-02-14T07:22:43.828Z,-3.60
2018-02-14T07:25:10.035Z,-3.70
2018-02-14T07:27:37.030Z,-3.20
2018-02-14T07:30:03.246Z,-3.20
2018-02-14T07:32:29.442Z,-3.00
2018-02-14T07:34:55.652Z,-2.90
2018-02-14T07:37:21.874Z,-2.70
2018-02-14T07:39:48.112Z,-2.60
2018-02-14T07:42:14.331Z,-2.50
2018-02-14T07:44:41.283Z,-2.30
2018-02-14T07:47:07.482Z,-2.30
2018-02-14T07:49:33.684Z,-2.20
2018-02-14T07:51:59.898Z,-2.00
2018-02-14T07:54:26.864Z,-2.00
2018-02-14T07:56:53.841Z,-2.00
2018-02-14T07:59:20.048Z,-2.00
2018-02-14T08:01:46.303Z,-2.10
2018-02-14T08:04:13.289Z,-2.20
2018-02-14T08:06:39.495Z,-2.20
2018-02-14T08:09:06.521Z,-2.10
2018-02-14T08:11:32.706Z,-2.10
2018-02-14T08:13:59.692Z,-1.80
2018-02-14T08:16:25.923Z,-1.80
2018-02-14T08:18:52.144Z,-1.60
2018-02-14T08:21:18.381Z,-1.50
2018-02-14T08:23:45.345Z,-1.40
2018-02-14T08:26:11.588Z,-1.40
2018-02-14T08:28:37.799Z,-1.20
2018-02-14T08:31:04.025Z,-1.20
2018-02-14T08:33:30.277Z,-1.30
2018-02-14T08:35:56.513Z,-1.40
2018-02-14T08:38:22.723Z,-1.50
2018-02-14T08:40:49.705Z,-1.80
2018-02-14T08:43:15.918Z,-1.90
2018-02-14T08:45:42.128Z,-2.00
2018-02-14T08:48:08.374Z,-2.10
2018-02-14T08:50:34.563Z,-2.20
2018-02-14T08:53:00.779Z,-2.20
2018-02-14T08:55:26.988Z,-2.20
2018-02-14T08:57:53.207Z,-2.20
2018-02-14T09:00:20.238Z,-2.10
2018-02-14T09:02:47.212Z,-2.10
2018-02-14T09:05:13.447Z,-2.10
2018-02-14T09:07:39.709Z,-2.10
2018-02-14T09:10:06.679Z,-2.10
2018-02-14T09:12:33.673Z,-2.00
2018-02-14T09:14:59.937Z,-2.10
2018-02-14T09:17:26.209Z,-2.00
2018-02-14T09:19:53.159Z,-2.00
2018-02-14T09:22:19.390Z,-2.00
2018-02-14T09:24:45.626Z,-1.90
2018-02-14T09:27:11.864Z,-1.90
2018-02-14T09:29:38.104Z,-1.80
2018-02-14T09:32:04.320Z,-1.70
2018-02-14T09:34:30.582Z,-1.70
2018-02-14T09:36:56.824Z,-1.70
2018-02-14T09:39:23.054Z,-1.70
2018-02-14T09:41:49.269Z,-1.60
2018-02-14T09:44:15.504Z,-1.60
2018-02-14T09:46:41.790Z,-1.50
2018-02-14T09:49:08.060Z,-1.40
2018-02-14T09:51:34.309Z,-1.30
2018-02-14T09:54:00.530Z,-1.20
2018-02-14T09:56:26.773Z,-1.20
2018-02-14T09:58:53.761Z,-1.00
2018-02-14T10:01:20.007Z,-1.00
2018-02-14T10:03:46.238Z,-0.80
2018-02-14T10:06:12.462Z,-0.60
2018-02-14T10:08:38.687Z,-0.40
2018-02-14T10:11:05.686Z,0.10
2018-02-14T10:13:31.894Z,0.10
2018-02-14T10:15:58.859Z,0.50
2018-02-14T10:18:25.812Z,0.50
2018-02-14T10:20:52.795Z,0.40
2018-02-14T10:23:19.021Z,0.40
2018-02-14T10:25:45.245Z,0.40
2018-02-14T10:28:12.204Z,0.30
2018-02-14T10:30:39.168Z,0.50
2018-02-14T10:33:06.123Z,0.60
2018-02-14T10:35:32.774Z,0.60
2018-02-14T10:37:59.732Z,1.00
2018-02-14T10:40:26.691Z,1.20
2018-02-14T10:42:52.927Z,1.20
2018-02-14T10:45:19.897Z,1.60
2018-02-14T10:47:46.117Z,1.60
2018-02-14T10:50:12.329Z,1.80
2018-02-14T10:52:38.631Z,1.90
2018-02-14T10:55:04.855Z,2.00
2018-02-14T10:57:31.059Z,2.10
2018-02-14T10:59:57.297Z,2.20
2018-02-14T11:02:23.599Z,2.30
2018-02-14T11:04:56.037Z,2.30
2018-02-14T11:07:22.274Z,2.40
2018-02-14T11:09:48.498Z,2.40
2018-02-14T11:12:14.712Z,2.40
2018-02-14T11:14:40.944Z,2.40
2018-02-14T11:17:07.193Z,2.30
2018-02-14T11:19:33.445Z,2.10
2018-02-14T11:21:59.672Z,2.00
2018-02-14T11:24:25.931Z,2.10
2018-02-14T11:26:52.200Z,2.10
2018-02-14T11:29:18.404Z,2.30
2018-02-14T11:31:44.640Z,2.50
2018-02-14T11:34:10.875Z,2.70
2018-02-14T11:36:37.116Z,2.80
2018-02-14T11:39:03.716Z,3.10
2018-02-14T11:41:30.734Z,3.50
2018-02-14T11:43:56.949Z,3.40
2018-02-14T11:46:23.177Z,3.60
2018-02-14T11:48:49.383Z,3.70
2018-02-14T11:51:16.373Z,3.80
2018-02-14T11:53:42.609Z,3.80
2018-02-14T11:56:08.848Z,3.90
2018-02-14T11:58:35.824Z,4.10
2018-02-14T12:01:02.084Z,4.10
2018-02-14T12:03:28.308Z,4.10
2018-02-14T12:05:54.500Z,4.10
2018-02-14T12:08:20.714Z,3.90
2018-02-14T12:10:46.958Z,3.80
2018-02-14T12:13:13.142Z,3.90
2018-02-14T12:15:40.156Z,3.80
2018-02-14T12:18:06.383Z,3.80
2018-02-14T12:20:32.601Z,3.70
2018-02-14T12:22:58.827Z,3.60
2018-02-14T12:25:25.041Z,3.60
2018-02-14T12:27:51.275Z,3.60
2018-02-14T12:30:18.288Z,3.80
2018-02-14T12:32:44.530Z,3.80
2018-02-14T12:35:10.757Z,4.00
2018-02-14T12:37:36.971Z,4.00
2018-02-14T12:40:03.211Z,3.90
2018-02-14T12:42:30.199Z,3.70
2018-02-14T12:44:56.435Z,3.60
2018-02-14T12:47:22.675Z,3.60
2018-02-14T12:49:49.203Z,3.60
2018-02-14T12:52:16.173Z,3.80
2018-02-14T12:54:42.380Z,3.80
2018-02-14T12:57:08.629Z,3.90
2018-02-14T12:59:35.589Z,3.80
2018-02-14T13:02:02.557Z,3.70
2018-02-14T13:04:29.511Z,3.60
2018-02-14T13:06:56.490Z,3.60
2018-02-14T13:09:22.754Z,3.60
2018-02-14T13:11:48.983Z,3.60
2018-02-14T13:14:15.238Z,3.60
2018-02-14T13:16:41.470Z,3.50
2018-02-14T13:19:07.744Z,3.40
2018-02-14T13:21:33.970Z,3.50
2018-02-14T13:24:00.921Z,3.60
2018-02-14T13:26:27.205Z,3.60
2018-02-14T13:28:54.148Z,3.80
2018-02-14T13:31:20.416Z,3.80
2018-02-14T13:33:47.378Z,3.90
2018-02-14T13:36:14.359Z,3.80
2018-02-14T13:38:40.560Z,3.80
2018-02-14T13:41:06.796Z,3.60
2018-02-14T13:43:33.031Z,3.50
2018-02-14T13:45:59.242Z,3.40
2018-02-14T13:48:25.472Z,3.30
2018-02-14T13:50:51.712Z,3.30
2018-02-14T13:53:17.946Z,3.30
2018-02-14T13:55:44.174Z,3.20
2018-02-14T13:58:10.387Z,3.10
2018-02-14T14:00:37.360Z,3.00
2018-02-14T14:03:03.576Z,3.00
2018-02-14T14:05:29.838Z,2.90
2018-02-14T14:07:56.081Z,2.70
2018-02-14T14:10:22.302Z,2.70
2018-02-14T14:12:49.306Z,2.60
2018-02-14T14:15:15.522Z,2.60
2018-02-14T14:17:42.764Z,2.60
2018-02-14T14:20:09.722Z,2.80
2018-02-14T14:22:35.939Z,2.80
2018-02-14T14:25:02.186Z,3.00
2018-02-14T14:27:28.426Z,3.30
2018-02-14T14:29:54.688Z,3.50
2018-02-14T14:32:21.668Z,3.90
2018-02-14T14:34:47.880Z,3.80
2018-02-14T14:37:14.868Z,4.10
2018-02-14T14:39:41.102Z,4.00
2018-02-14T14:42:07.371Z,4.20
2018-02-14T14:44:33.620Z,4.40
2018-02-14T14:47:00.307Z,4.70
2018-02-14T14:49:26.532Z,5.00
2018-02-14T14:51:52.770Z,5.10
2018-02-14T14:54:18.994Z,5.10
2018-02-14T14:56:45.443Z,5.00
2018-02-14T14:59:11.686Z,4.90
2018-02-14T15:01:37.924Z,4.80
2018-02-14T15:04:04.172Z,4.80
2018-02-14T15:06:30.417Z,4.80
2018-02-14T15:08:56.680Z,4.80
2018-02-14T15:11:23.663Z,4.50
2018-02-14T15:13:49.904Z,4.50
2018-02-14T15:16:16.115Z,4.50
2018-02-14T15:18:42.341Z,4.40
2018-02-14T15:21:08.594Z,4.20
2018-02-14T15:23:34.859Z,4.00
2018-02-14T15:26:01.097Z,3.80
2018-02-14T15:28:28.043Z,3.60
2018-02-14T15:30:54.275Z,3.50
2018-02-14T15:33:20.499Z,3.50
2018-02-14T15:35:46.749Z,3.40
2018-02-14T15:38:13.001Z,3.40
2018-02-14T15:40:39.959Z,3.30
2018-02-14T15:43:06.941Z,3.20
2018-02-14T15:45:33.207Z,3.20
2018-02-14T15:47:59.454Z,3.20
2018-02-14T15:50:25.677Z,3.10
2018-02-14T15:52:51.916Z,3.00
2018-02-14T15:55:18.195Z,2.80
2018-02-14T15:57:44.431Z,2.70
2018-02-14T16:00:10.689Z,2.60
2018-02-14T16:02:37.669Z,2.30
2018-02-14T16:05:04.709Z,2.10
2018-02-14T16:07:31.724Z,2.00
2018-02-14T16:09:57.967Z,2.00
2018-02-14T16:12:24.211Z,1.90
2018-02-14T16:14:50.455Z,1.90
2018-02-14T16:17:16.686Z,1.70
2018-02-14T16:19:42.923Z,1.60
2018-02-14T16:22:09.172Z,1.50
2018-02-14T16:24:35.404Z,1.40
2018-02-14T16:27:01.644Z,1.30
2018-02-14T16:29:27.906Z,1.30
2018-02-14T16:31:54.866Z,1.10
2018-02-14T16:34:21.101Z,1.10
2018-02-14T16:36:47.378Z,1.00
2018-02-14T16:39:13.630Z,0.80
2018-02-14T16:41:39.904Z,0.70
2018-02-14T16:44:06.138Z,0.60
2018-02-14T16:46:32.380Z,0.50
2018-02-14T16:48:58.622Z,0.40
2018-02-14T16:51:24.894Z,0.30
2018-02-14T16:53:51.166Z,0.20
2018-02-14T16:56:18.120Z,-0.10
2018-02-14T16:58:44.366Z,-0.10
2018-02-14T17:01:11.370Z,-0.30
2018-02-14T17:03:37.657Z,-0.30
2018-02-14T17:06:04.862Z,-0.40
2018-02-14T17:08:31.108Z,-0.50
2018-02-14T17:10:57.404Z,-0.50
2018-02-14T17:13:23.600Z,-0.60
2018-02-14T17:15:49.839Z,-0.60
2018-02-14T17:18:16.090Z,-0.60
2018-02-14T17:20:42.350Z,-0.70
2018-02-14T17:23:08.702Z,-0.70
2018-02-14T17:25:35.004Z,-0.80
2018-02-14T17:28:01.317Z,-0.90
2018-02-14T17:30:27.604Z,-1.00
2018-02-14T17:32:53.893Z,-1.00
2018-02-14T17:35:20.248Z,-1.10
2018-02-14T17:37:47.220Z,-1.10
2018-02-14T17:40:13.454Z,-1.10
2018-02-14T17:42:39.756Z,-1.10
2018-02-14T17:45:06.005Z,-1.20
2018-02-14T17:47:33.019Z,-1.20
2018-02-14T17:49:59.289Z,-1.30
2018-02-14T17:52:26.305Z,-1.30
2018-02-14T17:54:52.543Z,-1.30
2018-02-14T17:57:18.783Z,-1.30
2018-02-14T17:59:45.023Z,-1.40
2018-02-14T18:02:11.263Z,-1.50
2018-02-14T18:04:37.545Z,-1.60
2018-02-14T18:07:03.780Z,-1.60
2018-02-14T18:09:30.069Z,-1.70
2018-02-14T18:11:56.323Z,-1.80
2018-02-14T18:14:22.573Z,-1.80
2018-02-14T18:16:48.839Z,-1.80
2018-02-14T18:19:15.145Z,-1.80
2018-02-14T18:21:41.457Z,-1.90
2018-02-14T18:24:08.469Z,-1.90
2018-02-14T18:26:34.789Z,-1.90
2018-02-14T18:29:01.103Z,-1.90
2018-02-14T18:31:28.213Z,-2.00
2018-02-14T18:33:54.495Z,-2.00
2018-02-14T18:36:21.528Z,-2.10
2018-02-14T18:38:47.827Z,-2.10
2018-02-14T18:41:14.176Z,-2.10
2018-02-14T18:43:40.482Z,-2.10
2018-02-14T18:46:06.786Z,-2.10
2018-02-14T18:48:33.191Z,-2.20
2018-02-14T18:50:59.528Z,-2.20
2018-02-14T18:53:26.530Z,-2.20
2018-02-14T18:55:52.864Z,-2.20
2018-02-14T18:58:20.126Z,-2.30
2018-02-14T19:00:46.422Z,-2.30
2018-02-14T19:03:12.698Z,-2.40
2018-02-14T19:05:39.063Z,-2.40
2018-02-14T19:08:05.382Z,-2.50
2018-02-14T19:10:31.668Z,-2.50
2018-02-14T19:12:57.956Z,-2.60
2018-02-14T19:15:25.080Z,-2.60
2018-02-14T19:17:51.418Z,-2.60
2018-02-14T19:20:17.704Z,-2.70
2018-02-14T19:22:44.008Z,-2.70
2018-02-14T19:25:10.315Z,-2.70
2018-02-14T19:27:36.589Z,-2.80
2018-02-14T19:30:02.928Z,-2.80
2018-02-14T19:32:29.226Z,-2.90
2018-02-14T19:34:55.522Z,-2.90
2018-02-14T19:37:21.848Z,-2.90
2018-02-14T19:39:48.109Z,-2.90
2018-02-14T19:42:15.349Z,-2.90
2018-02-14T19:44:41.604Z,-2.90
2018-02-14T19:47:07.946Z,-3.00
2018-02-14T19:49:34.243Z,-3.00
2018-02-14T19:52:00.541Z,-3.00
2018-02-14T19:54:27.595Z,-3.00
2018-02-14T19:56:54.651Z,-3.00
2018-02-14T19:59:20.955Z,-3.10
2018-02-14T20:01:47.298Z,-3.00
2018-02-14T20:04:13.602Z,-3.00
2018-02-14T20:06:40.663Z,-3.10
2018-02-14T20:09:07.793Z,-3.10
2018-02-14T20:11:35.061Z,-3.10
2018-02-14T20:14:02.131Z,-3.10
2018-02-14T20:16:29.150Z,-3.00
2018-02-14T20:18:55.463Z,-3.10
2018-02-14T20:21:21.738Z,-3.10
2018-02-14T20:23:48.283Z,-3.20
2018-02-14T20:26:14.605Z,-3.20
2018-02-14T20:28:40.909Z,-3.20
2018-02-14T20:31:07.223Z,-3.20
2018-02-14T20:33:34.345Z,-3.20
2018-02-14T20:36:00.683Z,-3.20
2018-02-14T20:38:28.045Z,-3.20
2018-02-14T20:40:54.350Z,-3.20
2018-02-14T20:43:20.609Z,-3.30
2018-02-14T20:45:47.680Z,-3.40
2018-02-14T20:48:14.690Z,-3.40
2018-02-14T20:50:41.004Z,-3.40
2018-02-14T20:53:07.379Z,-3.40
2018-02-14T20:55:33.707Z,-3.40
2018-02-14T20:58:00.022Z,-3.50
2018-02-14T21:00:26.393Z,-3.50
2018-02-14T21:02:52.664Z,-3.40
2018-02-14T21:05:19.748Z,-3.40
2018-02-14T21:07:46.043Z,-3.40
2018-02-14T21:10:12.633Z,-3.40
2018-02-14T21:12:39.688Z,-3.50
2018-02-14T21:15:05.978Z,-3.50
2018-02-14T21:17:32.278Z,-3.50
2018-02-14T21:19:59.284Z,-3.50
2018-02-14T21:22:25.596Z,-3.60
2018-02-14T21:24:51.870Z,-3.60
2018-02-14T21:27:18.173Z,-3.60
2018-02-14T21:29:45.148Z,-3.70
2018-02-14T21:32:11.368Z,-3.80
2018-02-14T21:34:38.394Z,-3.70
2018-02-14T21:37:04.667Z,-3.70
2018-02-14T21:39:30.948Z,-3.70
2018-02-14T21:41:57.195Z,-3.70
2018-02-14T21:44:23.442Z,-3.70
2018-02-14T21:46:49.673Z,-3.70
2018-02-14T21:49:15.916Z,-3.80
2018-02-14T21:51:42.227Z,-3.80
2018-02-14T21:54:08.481Z,-3.80
2018-02-14T21:56:34.731Z,-3.80
2018-02-14T21:59:00.968Z,-3.80
2018-02-14T22:01:27.193Z,-3.80
2018-02-14T22:03:53.461Z,-3.80
2018-02-14T22:06:19.715Z,-3.90
2018-02-14T22:08:46.233Z,-3.80
2018-02-14T22:11:12.450Z,-3.80
2018-02-14T22:13:39.426Z,-3.80
2018-02-14T22:16:05.663Z,-3.80
2018-02-14T22:18:31.885Z,-3.80
2018-02-14T22:20:59.127Z,-3.90
2018-02-14T22:23:25.356Z,-3.90
2018-02-14T22:25:51.603Z,-3.90
2018-02-14T22:28:17.877Z,-3.90
2018-02-14T22:30:44.835Z,-4.00
2018-02-14T22:33:11.829Z,-4.10
2018-02-14T22:35:38.090Z,-4.10
2018-02-14T22:38:04.324Z,-4.10
2018-02-14T22:40:30.566Z,-4.10
2018-02-14T22:42:56.790Z,-4.10
2018-02-14T22:45:23.015Z,-4.10
2018-02-14T22:47:49.225Z,-4.10
2018-02-14T22:50:16.176Z,-4.10
2018-02-14T22:52:43.164Z,-4.10
2018-02-14T22:55:09.393Z,-4.20
2018-02-14T22:57:35.606Z,-4.10
2018-02-14T23:00:01.856Z,-4.20
2018-02-14T23:02:28.104Z,-4.20
2018-02-14T23:04:54.330Z,-4.20
2018-02-14T23:07:20.546Z,-4.20
2018-02-14T23:09:46.770Z,-4.30
2018-02-14T23:12:12.984Z,-4.30
2018-02-14T23:14:39.207Z,-4.30
2018-02-14T23:17:06.183Z,-4.30
2018-02-14T23:19:32.418Z,-4.30
2018-02-14T23:21:58.624Z,-4.30
2018-02-14T23:24:24.828Z,-4.30
2018-02-14T23:26:51.068Z,-4.30
2018-02-14T23:29:17.313Z,-4.40
2018-02-14T23:31:43.533Z,-4.50
2018-02-14T23:34:09.776Z,-4.50
2018-02-14T23:36:35.988Z,-4.60
2018-02-14T23:39:03.026Z,-4.70
2018-02-14T23:41:29.263Z,-4.70
2018-02-14T23:43:55.496Z,-4.70
2018-02-14T23:46:21.712Z,-4.80
2018-02-14T23:48:47.951Z,-4.80
2018-02-14T23:51:14.172Z,-4.80
2018-02-14T23:53:41.104Z,-4.90
2018-02-14T23:56:08.060Z,-4.90
2018-02-14T23:58:34.996Z,-4.90
